<?xml version='1.0' encoding='UTF-8'?>
<gpx version="1.1" creator="https://www.komoot.de" xmlns="http://www.topografix.com/GPX/1/1" xmlns:xsi="http://www.w3.org/2001/XMLSchema-instance" xsi:schemaLocation="http://www.topografix.com/GPX/1/1 http://www.topografix.com/GPX/1/1/gpx.xsd">
  <metadata>
    <name>Lions Fietstocht 2026 familie 15 km_definitief</name>
    <author>
      <link href="https://www.komoot.de">
        <text>komoot</text>
        <type>text/html</type>
      </link>
    </author>
  </metadata>
  <trk>
    <name>Lions Fietstocht 2026 familie 15 km_definitief</name>
    <type>touring_bicycle</type>
    <trkseg>
      <trkpt lat="52.225201" lon="6.102185">
        <ele>4.631030</ele>
        <time>2026-07-23T20:13:26.606Z</time>
      </trkpt>
      <trkpt lat="52.225299" lon="6.101679">
        <ele>4.631030</ele>
        <time>2026-07-23T20:13:35.800Z</time>
      </trkpt>
      <trkpt lat="52.225263" lon="6.101568">
        <ele>4.631030</ele>
        <time>2026-07-23T20:13:37.918Z</time>
      </trkpt>
      <trkpt lat="52.225190" lon="6.101529">
        <ele>4.631030</ele>
        <time>2026-07-23T20:13:40.009Z</time>
      </trkpt>
      <trkpt lat="52.225212" lon="6.101417">
        <ele>4.631030</ele>
        <time>2026-07-23T20:13:42.044Z</time>
      </trkpt>
      <trkpt lat="52.225845" lon="6.101749">
        <ele>4.679257</ele>
        <time>2026-07-23T20:13:57.622Z</time>
      </trkpt>
      <trkpt lat="52.225952" lon="6.101808">
        <ele>4.696471</ele>
        <time>2026-07-23T20:14:00.225Z</time>
      </trkpt>
      <trkpt lat="52.225991" lon="6.101850">
        <ele>4.703592</ele>
        <time>2026-07-23T20:14:01.297Z</time>
      </trkpt>
      <trkpt lat="52.226009" lon="6.101918">
        <ele>4.710508</ele>
        <time>2026-07-23T20:14:02.324Z</time>
      </trkpt>
      <trkpt lat="52.226068" lon="6.103106">
        <ele>4.821787</ele>
        <time>2026-07-23T20:14:18.658Z</time>
      </trkpt>
      <trkpt lat="52.226096" lon="6.103155">
        <ele>4.828044</ele>
        <time>2026-07-23T20:14:19.582Z</time>
      </trkpt>
      <trkpt lat="52.226108" lon="6.103178">
        <ele>4.830864</ele>
        <time>2026-07-23T20:14:19.990Z</time>
      </trkpt>
      <trkpt lat="52.225951" lon="6.103446">
        <ele>4.865486</ele>
        <time>2026-07-23T20:14:25.113Z</time>
      </trkpt>
      <trkpt lat="52.225954" lon="6.103509">
        <ele>4.871386</ele>
        <time>2026-07-23T20:14:26.025Z</time>
      </trkpt>
      <trkpt lat="52.226140" lon="6.103980">
        <ele>4.926795</ele>
        <time>2026-07-23T20:14:34.277Z</time>
      </trkpt>
      <trkpt lat="52.226169" lon="6.104002">
        <ele>4.932481</ele>
        <time>2026-07-23T20:14:35.075Z</time>
      </trkpt>
      <trkpt lat="52.226191" lon="6.103999">
        <ele>4.936407</ele>
        <time>2026-07-23T20:14:35.618Z</time>
      </trkpt>
      <trkpt lat="52.226258" lon="6.103990">
        <ele>4.948361</ele>
        <time>2026-07-23T20:14:37.331Z</time>
      </trkpt>
      <trkpt lat="52.226276" lon="6.103986">
        <ele>4.951591</ele>
        <time>2026-07-23T20:14:37.799Z</time>
      </trkpt>
      <trkpt lat="52.226337" lon="6.103849">
        <ele>4.970039</ele>
        <time>2026-07-23T20:14:40.243Z</time>
      </trkpt>
      <trkpt lat="52.226408" lon="6.103690">
        <ele>4.991471</ele>
        <time>2026-07-23T20:14:43.051Z</time>
      </trkpt>
      <trkpt lat="52.226714" lon="6.103650">
        <ele>5.046058</ele>
        <time>2026-07-23T20:14:50.334Z</time>
      </trkpt>
      <trkpt lat="52.226800" lon="6.103631">
        <ele>5.061490</ele>
        <time>2026-07-23T20:14:52.231Z</time>
      </trkpt>
      <trkpt lat="52.226879" lon="6.103500">
        <ele>5.081513</ele>
        <time>2026-07-23T20:14:54.594Z</time>
      </trkpt>
      <trkpt lat="52.226928" lon="6.103494">
        <ele>5.090251</ele>
        <time>2026-07-23T20:14:55.663Z</time>
      </trkpt>
      <trkpt lat="52.226933" lon="6.103583">
        <ele>5.099985</ele>
        <time>2026-07-23T20:14:56.908Z</time>
      </trkpt>
      <trkpt lat="52.226906" lon="6.103778">
        <ele>5.121761</ele>
        <time>2026-07-23T20:14:59.926Z</time>
      </trkpt>
      <trkpt lat="52.226878" lon="6.104040">
        <ele>5.150729</ele>
        <time>2026-07-23T20:15:03.903Z</time>
      </trkpt>
      <trkpt lat="52.226961" lon="6.106027">
        <ele>5.346666</ele>
        <time>2026-07-23T20:15:30.491Z</time>
      </trkpt>
      <trkpt lat="52.226969" lon="6.106376">
        <ele>5.379109</ele>
        <time>2026-07-23T20:15:34.918Z</time>
      </trkpt>
      <trkpt lat="52.226970" lon="6.106416">
        <ele>5.382828</ele>
        <time>2026-07-23T20:15:35.423Z</time>
      </trkpt>
      <trkpt lat="52.226972" lon="6.106592">
        <ele>5.399180</ele>
        <time>2026-07-23T20:15:37.764Z</time>
      </trkpt>
      <trkpt lat="52.227374" lon="6.110125">
        <ele>6.310329</ele>
        <time>2026-07-23T20:16:32.882Z</time>
      </trkpt>
      <trkpt lat="52.227370" lon="6.110235">
        <ele>6.345691</ele>
        <time>2026-07-23T20:16:34.451Z</time>
      </trkpt>
      <trkpt lat="52.227444" lon="6.110248">
        <ele>6.384684</ele>
        <time>2026-07-23T20:16:36.106Z</time>
      </trkpt>
      <trkpt lat="52.227448" lon="6.110487">
        <ele>6.427231</ele>
        <time>2026-07-23T20:16:39.235Z</time>
      </trkpt>
      <trkpt lat="52.227744" lon="6.113153">
        <ele>5.902085</ele>
        <time>2026-07-23T20:17:14.308Z</time>
      </trkpt>
      <trkpt lat="52.227921" lon="6.115234">
        <ele>5.407115</ele>
        <time>2026-07-23T20:17:39.915Z</time>
      </trkpt>
      <trkpt lat="52.228060" lon="6.116676">
        <ele>5.115253</ele>
        <time>2026-07-23T20:18:00.679Z</time>
      </trkpt>
      <trkpt lat="52.228213" lon="6.117966">
        <ele>4.962932</ele>
        <time>2026-07-23T20:18:16.905Z</time>
      </trkpt>
      <trkpt lat="52.228370" lon="6.119282">
        <ele>4.949394</ele>
        <time>2026-07-23T20:18:33.652Z</time>
      </trkpt>
      <trkpt lat="52.228477" lon="6.119227">
        <ele>5.071027</ele>
        <time>2026-07-23T20:18:36.917Z</time>
      </trkpt>
      <trkpt lat="52.229044" lon="6.118907">
        <ele>5.721513</ele>
        <time>2026-07-23T20:18:55.468Z</time>
      </trkpt>
      <trkpt lat="52.229441" lon="6.118632">
        <ele>6.189117</ele>
        <time>2026-07-23T20:19:07.678Z</time>
      </trkpt>
      <trkpt lat="52.230134" lon="6.118126">
        <ele>6.784055</ele>
        <time>2026-07-23T20:19:26.544Z</time>
      </trkpt>
      <trkpt lat="52.230752" lon="6.117821">
        <ele>6.799706</ele>
        <time>2026-07-23T20:19:41.792Z</time>
      </trkpt>
      <trkpt lat="52.231068" lon="6.117712">
        <ele>6.807536</ele>
        <time>2026-07-23T20:19:49.006Z</time>
      </trkpt>
      <trkpt lat="52.231336" lon="6.117676">
        <ele>6.814055</ele>
        <time>2026-07-23T20:19:54.390Z</time>
      </trkpt>
      <trkpt lat="52.231845" lon="6.117846">
        <ele>6.751746</ele>
        <time>2026-07-23T20:20:04.867Z</time>
      </trkpt>
      <trkpt lat="52.233040" lon="6.118280">
        <ele>6.253394</ele>
        <time>2026-07-23T20:20:30.350Z</time>
      </trkpt>
      <trkpt lat="52.233291" lon="6.118318">
        <ele>6.150778</ele>
        <time>2026-07-23T20:20:36.223Z</time>
      </trkpt>
      <trkpt lat="52.233483" lon="6.118304">
        <ele>6.082544</ele>
        <time>2026-07-23T20:20:40.162Z</time>
      </trkpt>
      <trkpt lat="52.233646" lon="6.118285">
        <ele>6.053608</ele>
        <time>2026-07-23T20:20:43.280Z</time>
      </trkpt>
      <trkpt lat="52.233911" lon="6.118256">
        <ele>6.006579</ele>
        <time>2026-07-23T20:20:48.394Z</time>
      </trkpt>
      <trkpt lat="52.234426" lon="6.118115">
        <ele>5.914114</ele>
        <time>2026-07-23T20:21:01.002Z</time>
      </trkpt>
      <trkpt lat="52.234440" lon="6.118201">
        <ele>5.904464</ele>
        <time>2026-07-23T20:21:02.229Z</time>
      </trkpt>
      <trkpt lat="52.234417" lon="6.119127">
        <ele>5.803962</ele>
        <time>2026-07-23T20:21:15.603Z</time>
      </trkpt>
      <trkpt lat="52.234406" lon="6.119525">
        <ele>5.727021</ele>
        <time>2026-07-23T20:21:20.351Z</time>
      </trkpt>
      <trkpt lat="52.234255" lon="6.120660">
        <ele>5.214756</ele>
        <time>2026-07-23T20:21:33.746Z</time>
      </trkpt>
      <trkpt lat="52.234621" lon="6.120924">
        <ele>4.926606</ele>
        <time>2026-07-23T20:21:44.263Z</time>
      </trkpt>
      <trkpt lat="52.235169" lon="6.121204">
        <ele>4.513089</ele>
        <time>2026-07-23T20:22:01.043Z</time>
      </trkpt>
      <trkpt lat="52.235770" lon="6.121502">
        <ele>4.764610</ele>
        <time>2026-07-23T20:22:16.926Z</time>
      </trkpt>
      <trkpt lat="52.235871" lon="6.121554">
        <ele>4.817477</ele>
        <time>2026-07-23T20:22:20.929Z</time>
      </trkpt>
      <trkpt lat="52.236238" lon="6.121741">
        <ele>5.009402</ele>
        <time>2026-07-23T20:22:37.339Z</time>
      </trkpt>
      <trkpt lat="52.236483" lon="6.121858">
        <ele>5.136832</ele>
        <time>2026-07-23T20:22:44.270Z</time>
      </trkpt>
      <trkpt lat="52.236528" lon="6.121916">
        <ele>5.165452</ele>
        <time>2026-07-23T20:22:45.665Z</time>
      </trkpt>
      <trkpt lat="52.236539" lon="6.121983">
        <ele>5.186659</ele>
        <time>2026-07-23T20:22:46.652Z</time>
      </trkpt>
      <trkpt lat="52.236422" lon="6.123059">
        <ele>5.140356</ele>
        <time>2026-07-23T20:23:00.698Z</time>
      </trkpt>
      <trkpt lat="52.236350" lon="6.123614">
        <ele>4.863128</ele>
        <time>2026-07-23T20:23:07.395Z</time>
      </trkpt>
      <trkpt lat="52.236216" lon="6.124348">
        <ele>4.488849</ele>
        <time>2026-07-23T20:23:16.268Z</time>
      </trkpt>
      <trkpt lat="52.236119" lon="6.124822">
        <ele>4.244631</ele>
        <time>2026-07-23T20:23:21.836Z</time>
      </trkpt>
      <trkpt lat="52.235927" lon="6.125380">
        <ele>3.936490</ele>
        <time>2026-07-23T20:23:29.748Z</time>
      </trkpt>
      <trkpt lat="52.235477" lon="6.127621">
        <ele>3.516536</ele>
        <time>2026-07-23T20:24:00.106Z</time>
      </trkpt>
      <trkpt lat="52.235411" lon="6.127680">
        <ele>3.494657</ele>
        <time>2026-07-23T20:24:01.717Z</time>
      </trkpt>
      <trkpt lat="52.235187" lon="6.127635">
        <ele>3.429035</ele>
        <time>2026-07-23T20:24:06.735Z</time>
      </trkpt>
      <trkpt lat="52.235129" lon="6.127685">
        <ele>3.422457</ele>
        <time>2026-07-23T20:24:08.250Z</time>
      </trkpt>
      <trkpt lat="52.235108" lon="6.127759">
        <ele>3.437207</ele>
        <time>2026-07-23T20:24:09.407Z</time>
      </trkpt>
      <trkpt lat="52.235068" lon="6.128598">
        <ele>3.589402</ele>
        <time>2026-07-23T20:24:21.665Z</time>
      </trkpt>
      <trkpt lat="52.235046" lon="6.128684">
        <ele>3.606258</ele>
        <time>2026-07-23T20:24:23.104Z</time>
      </trkpt>
      <trkpt lat="52.235003" lon="6.128736">
        <ele>3.622060</ele>
        <time>2026-07-23T20:24:24.476Z</time>
      </trkpt>
      <trkpt lat="52.234416" lon="6.129031">
        <ele>3.803430</ele>
        <time>2026-07-23T20:24:39.696Z</time>
      </trkpt>
      <trkpt lat="52.234349" lon="6.129150">
        <ele>3.832665</ele>
        <time>2026-07-23T20:24:41.948Z</time>
      </trkpt>
      <trkpt lat="52.234151" lon="6.129758">
        <ele>3.965656</ele>
        <time>2026-07-23T20:24:51.032Z</time>
      </trkpt>
      <trkpt lat="52.234123" lon="6.129833">
        <ele>3.995117</ele>
        <time>2026-07-23T20:24:52.306Z</time>
      </trkpt>
      <trkpt lat="52.234073" lon="6.129895">
        <ele>4.029502</ele>
        <time>2026-07-23T20:24:54.774Z</time>
      </trkpt>
      <trkpt lat="52.234050" lon="6.129956">
        <ele>4.053529</ele>
        <time>2026-07-23T20:24:55.813Z</time>
      </trkpt>
      <trkpt lat="52.234057" lon="6.130037">
        <ele>4.080967</ele>
        <time>2026-07-23T20:24:56.941Z</time>
      </trkpt>
      <trkpt lat="52.234290" lon="6.130512">
        <ele>4.285092</ele>
        <time>2026-07-23T20:25:04.727Z</time>
      </trkpt>
      <trkpt lat="52.234315" lon="6.130735">
        <ele>4.361131</ele>
        <time>2026-07-23T20:25:08.352Z</time>
      </trkpt>
      <trkpt lat="52.234291" lon="6.132951">
        <ele>4.942735</ele>
        <time>2026-07-23T20:25:43.737Z</time>
      </trkpt>
      <trkpt lat="52.234254" lon="6.133208">
        <ele>4.948060</ele>
        <time>2026-07-23T20:25:47.664Z</time>
      </trkpt>
      <trkpt lat="52.234441" lon="6.133283">
        <ele>4.954403</ele>
        <time>2026-07-23T20:25:51.958Z</time>
      </trkpt>
      <trkpt lat="52.234859" lon="6.133182">
        <ele>4.968321</ele>
        <time>2026-07-23T20:26:00.948Z</time>
      </trkpt>
      <trkpt lat="52.235407" lon="6.133010">
        <ele>4.986702</ele>
        <time>2026-07-23T20:26:11.909Z</time>
      </trkpt>
      <trkpt lat="52.236434" lon="6.132665">
        <ele>5.128436</ele>
        <time>2026-07-23T20:26:36.034Z</time>
      </trkpt>
      <trkpt lat="52.236522" lon="6.132668">
        <ele>5.141831</ele>
        <time>2026-07-23T20:26:38.077Z</time>
      </trkpt>
      <trkpt lat="52.236595" lon="6.132726">
        <ele>5.154185</ele>
        <time>2026-07-23T20:26:39.979Z</time>
      </trkpt>
      <trkpt lat="52.236654" lon="6.132846">
        <ele>5.168527</ele>
        <time>2026-07-23T20:26:42.211Z</time>
      </trkpt>
      <trkpt lat="52.236802" lon="6.133510">
        <ele>5.234380</ele>
        <time>2026-07-23T20:26:52.615Z</time>
      </trkpt>
      <trkpt lat="52.236885" lon="6.135646">
        <ele>5.503540</ele>
        <time>2026-07-23T20:27:22.197Z</time>
      </trkpt>
      <trkpt lat="52.236869" lon="6.136171">
        <ele>5.572790</ele>
        <time>2026-07-23T20:27:29.382Z</time>
      </trkpt>
      <trkpt lat="52.236776" lon="6.136912">
        <ele>5.661352</ele>
        <time>2026-07-23T20:27:40.206Z</time>
      </trkpt>
      <trkpt lat="52.236738" lon="6.137281">
        <ele>5.683541</ele>
        <time>2026-07-23T20:27:46.284Z</time>
      </trkpt>
      <trkpt lat="52.236740" lon="6.137355">
        <ele>5.687934</ele>
        <time>2026-07-23T20:27:47.468Z</time>
      </trkpt>
      <trkpt lat="52.236812" lon="6.137817">
        <ele>5.716204</ele>
        <time>2026-07-23T20:27:55.191Z</time>
      </trkpt>
      <trkpt lat="52.236833" lon="6.138125">
        <ele>5.734581</ele>
        <time>2026-07-23T20:28:00.038Z</time>
      </trkpt>
      <trkpt lat="52.236838" lon="6.138209">
        <ele>5.739586</ele>
        <time>2026-07-23T20:28:01.294Z</time>
      </trkpt>
      <trkpt lat="52.236669" lon="6.138236">
        <ele>5.756029</ele>
        <time>2026-07-23T20:28:05.142Z</time>
      </trkpt>
      <trkpt lat="52.236319" lon="6.138388">
        <ele>5.791098</ele>
        <time>2026-07-23T20:28:12.411Z</time>
      </trkpt>
      <trkpt lat="52.236062" lon="6.138539">
        <ele>5.817546</ele>
        <time>2026-07-23T20:28:17.735Z</time>
      </trkpt>
      <trkpt lat="52.235551" lon="6.138945">
        <ele>5.727578</ele>
        <time>2026-07-23T20:28:29.209Z</time>
      </trkpt>
      <trkpt lat="52.234939" lon="6.139599">
        <ele>5.575791</ele>
        <time>2026-07-23T20:28:45.203Z</time>
      </trkpt>
      <trkpt lat="52.234005" lon="6.140821">
        <ele>5.384812</ele>
        <time>2026-07-23T20:29:12.278Z</time>
      </trkpt>
      <trkpt lat="52.233762" lon="6.141044">
        <ele>5.353365</ele>
        <time>2026-07-23T20:29:18.440Z</time>
      </trkpt>
      <trkpt lat="52.233420" lon="6.141270">
        <ele>5.311743</ele>
        <time>2026-07-23T20:29:26.143Z</time>
      </trkpt>
      <trkpt lat="52.233052" lon="6.141406">
        <ele>5.269178</ele>
        <time>2026-07-23T20:29:33.952Z</time>
      </trkpt>
      <trkpt lat="52.232761" lon="6.141609">
        <ele>5.284172</ele>
        <time>2026-07-23T20:29:40.746Z</time>
      </trkpt>
      <trkpt lat="52.232270" lon="6.142083">
        <ele>5.414117</ele>
        <time>2026-07-23T20:29:53.857Z</time>
      </trkpt>
      <trkpt lat="52.231934" lon="6.142272">
        <ele>5.495077</ele>
        <time>2026-07-23T20:30:02.379Z</time>
      </trkpt>
      <trkpt lat="52.231678" lon="6.142331">
        <ele>5.553975</ele>
        <time>2026-07-23T20:30:08.608Z</time>
      </trkpt>
      <trkpt lat="52.231595" lon="6.142330">
        <ele>5.572884</ele>
        <time>2026-07-23T20:30:10.601Z</time>
      </trkpt>
      <trkpt lat="52.231410" lon="6.142251">
        <ele>5.616447</ele>
        <time>2026-07-23T20:30:15.220Z</time>
      </trkpt>
      <trkpt lat="52.231199" lon="6.142240">
        <ele>5.660267</ele>
        <time>2026-07-23T20:30:20.306Z</time>
      </trkpt>
      <trkpt lat="52.231033" lon="6.142281">
        <ele>5.662347</ele>
        <time>2026-07-23T20:30:24.320Z</time>
      </trkpt>
      <trkpt lat="52.230793" lon="6.142259">
        <ele>5.665326</ele>
        <time>2026-07-23T20:30:29.867Z</time>
      </trkpt>
      <trkpt lat="52.230272" lon="6.142278">
        <ele>5.671783</ele>
        <time>2026-07-23T20:30:41.001Z</time>
      </trkpt>
      <trkpt lat="52.230054" lon="6.142335">
        <ele>5.674519</ele>
        <time>2026-07-23T20:30:45.824Z</time>
      </trkpt>
      <trkpt lat="52.229142" lon="6.142788">
        <ele>5.697806</ele>
        <time>2026-07-23T20:31:06.998Z</time>
      </trkpt>
      <trkpt lat="52.228687" lon="6.143033">
        <ele>5.720678</ele>
        <time>2026-07-23T20:31:17.361Z</time>
      </trkpt>
      <trkpt lat="52.227997" lon="6.143519">
        <ele>5.756551</ele>
        <time>2026-07-23T20:31:34.599Z</time>
      </trkpt>
      <trkpt lat="52.226523" lon="6.144711">
        <ele>6.386082</ele>
        <time>2026-07-23T20:32:11.135Z</time>
      </trkpt>
      <trkpt lat="52.226210" lon="6.144907">
        <ele>6.533885</ele>
        <time>2026-07-23T20:32:19.115Z</time>
      </trkpt>
      <trkpt lat="52.226180" lon="6.144790">
        <ele>6.569096</ele>
        <time>2026-07-23T20:32:21.469Z</time>
      </trkpt>
      <trkpt lat="52.225837" lon="6.144981">
        <ele>6.750839</ele>
        <time>2026-07-23T20:32:34.910Z</time>
      </trkpt>
      <trkpt lat="52.225743" lon="6.144966">
        <ele>6.798204</ele>
        <time>2026-07-23T20:32:38.361Z</time>
      </trkpt>
      <trkpt lat="52.225631" lon="6.144872">
        <ele>6.861359</ele>
        <time>2026-07-23T20:32:42.316Z</time>
      </trkpt>
      <trkpt lat="52.225476" lon="6.144527">
        <ele>6.992790</ele>
        <time>2026-07-23T20:32:48.305Z</time>
      </trkpt>
      <trkpt lat="52.223576" lon="6.139854">
        <ele>6.435098</ele>
        <time>2026-07-23T20:33:59.107Z</time>
      </trkpt>
      <trkpt lat="52.223273" lon="6.139101">
        <ele>6.283828</ele>
        <time>2026-07-23T20:34:10.830Z</time>
      </trkpt>
      <trkpt lat="52.223284" lon="6.139058">
        <ele>6.276004</ele>
        <time>2026-07-23T20:34:11.638Z</time>
      </trkpt>
      <trkpt lat="52.223265" lon="6.139013">
        <ele>6.266827</ele>
        <time>2026-07-23T20:34:12.601Z</time>
      </trkpt>
      <trkpt lat="52.223236" lon="6.139014">
        <ele>6.258877</ele>
        <time>2026-07-23T20:34:13.424Z</time>
      </trkpt>
      <trkpt lat="52.221910" lon="6.135740">
        <ele>6.237021</ele>
        <time>2026-07-23T20:35:07.367Z</time>
      </trkpt>
      <trkpt lat="52.221660" lon="6.135078">
        <ele>6.296793</ele>
        <time>2026-07-23T20:35:18.228Z</time>
      </trkpt>
      <trkpt lat="52.219951" lon="6.130548">
        <ele>6.520873</ele>
        <time>2026-07-23T20:36:32.523Z</time>
      </trkpt>
      <trkpt lat="52.219400" lon="6.128730">
        <ele>6.171415</ele>
        <time>2026-07-23T20:37:01.029Z</time>
      </trkpt>
      <trkpt lat="52.219296" lon="6.128172">
        <ele>6.111821</ele>
        <time>2026-07-23T20:37:09.612Z</time>
      </trkpt>
      <trkpt lat="52.219203" lon="6.127346">
        <ele>6.204460</ele>
        <time>2026-07-23T20:37:22.383Z</time>
      </trkpt>
      <trkpt lat="52.219227" lon="6.125769">
        <ele>6.378468</ele>
        <time>2026-07-23T20:37:45.917Z</time>
      </trkpt>
      <trkpt lat="52.219089" lon="6.125775">
        <ele>6.403324</ele>
        <time>2026-07-23T20:37:49.707Z</time>
      </trkpt>
      <trkpt lat="52.218981" lon="6.125689">
        <ele>6.417351</ele>
        <time>2026-07-23T20:37:53.111Z</time>
      </trkpt>
      <trkpt lat="52.218908" lon="6.125684">
        <ele>6.411451</ele>
        <time>2026-07-23T20:37:55.336Z</time>
      </trkpt>
      <trkpt lat="52.218817" lon="6.125687">
        <ele>6.404103</ele>
        <time>2026-07-23T20:37:58.259Z</time>
      </trkpt>
      <trkpt lat="52.218719" lon="6.125766">
        <ele>6.395278</ele>
        <time>2026-07-23T20:38:01.478Z</time>
      </trkpt>
      <trkpt lat="52.218489" lon="6.125756">
        <ele>6.376701</ele>
        <time>2026-07-23T20:38:06.970Z</time>
      </trkpt>
      <trkpt lat="52.218165" lon="6.125461">
        <ele>6.346746</ele>
        <time>2026-07-23T20:38:15.642Z</time>
      </trkpt>
      <trkpt lat="52.218068" lon="6.125429">
        <ele>6.338756</ele>
        <time>2026-07-23T20:38:17.788Z</time>
      </trkpt>
      <trkpt lat="52.217189" lon="6.125414">
        <ele>6.237901</ele>
        <time>2026-07-23T20:38:35.271Z</time>
      </trkpt>
      <trkpt lat="52.217075" lon="6.125581">
        <ele>6.170393</ele>
        <time>2026-07-23T20:38:37.889Z</time>
      </trkpt>
      <trkpt lat="52.216971" lon="6.125607">
        <ele>6.124025</ele>
        <time>2026-07-23T20:38:39.690Z</time>
      </trkpt>
      <trkpt lat="52.216768" lon="6.125605">
        <ele>6.034560</ele>
        <time>2026-07-23T20:38:43.361Z</time>
      </trkpt>
      <trkpt lat="52.216609" lon="6.125747">
        <ele>5.954684</ele>
        <time>2026-07-23T20:38:46.999Z</time>
      </trkpt>
      <trkpt lat="52.215876" lon="6.125714">
        <ele>5.631524</ele>
        <time>2026-07-23T20:39:03.579Z</time>
      </trkpt>
      <trkpt lat="52.215729" lon="6.125642">
        <ele>5.563887</ele>
        <time>2026-07-23T20:39:07.223Z</time>
      </trkpt>
      <trkpt lat="52.215610" lon="6.125640">
        <ele>5.511440</ele>
        <time>2026-07-23T20:39:10.111Z</time>
      </trkpt>
      <trkpt lat="52.215477" lon="6.125699">
        <ele>5.470212</ele>
        <time>2026-07-23T20:39:13.537Z</time>
      </trkpt>
      <trkpt lat="52.215154" lon="6.125695">
        <ele>5.417141</ele>
        <time>2026-07-23T20:39:21.444Z</time>
      </trkpt>
      <trkpt lat="52.215092" lon="6.125711">
        <ele>5.406827</ele>
        <time>2026-07-23T20:39:22.776Z</time>
      </trkpt>
      <trkpt lat="52.215018" lon="6.125830">
        <ele>5.389759</ele>
        <time>2026-07-23T20:39:24.784Z</time>
      </trkpt>
      <trkpt lat="52.214961" lon="6.125857">
        <ele>5.380007</ele>
        <time>2026-07-23T20:39:25.887Z</time>
      </trkpt>
      <trkpt lat="52.214832" lon="6.125809">
        <ele>5.358268</ele>
        <time>2026-07-23T20:39:28.423Z</time>
      </trkpt>
      <trkpt lat="52.214743" lon="6.125725">
        <ele>5.341376</ele>
        <time>2026-07-23T20:39:30.461Z</time>
      </trkpt>
      <trkpt lat="52.214661" lon="6.125769">
        <ele>5.327193</ele>
        <time>2026-07-23T20:39:32.737Z</time>
      </trkpt>
      <trkpt lat="52.214584" lon="6.125812">
        <ele>5.313822</ele>
        <time>2026-07-23T20:39:35.012Z</time>
      </trkpt>
      <trkpt lat="52.214468" lon="6.125166">
        <ele>5.246054</ele>
        <time>2026-07-23T20:39:45.552Z</time>
      </trkpt>
      <trkpt lat="52.214339" lon="6.124867">
        <ele>5.209240</ele>
        <time>2026-07-23T20:39:51.048Z</time>
      </trkpt>
      <trkpt lat="52.214308" lon="6.124740">
        <ele>5.195477</ele>
        <time>2026-07-23T20:39:52.723Z</time>
      </trkpt>
      <trkpt lat="52.214269" lon="6.124524">
        <ele>5.159854</ele>
        <time>2026-07-23T20:39:55.187Z</time>
      </trkpt>
      <trkpt lat="52.214141" lon="6.124600">
        <ele>5.115966</ele>
        <time>2026-07-23T20:39:57.902Z</time>
      </trkpt>
      <trkpt lat="52.213929" lon="6.124794">
        <ele>5.037654</ele>
        <time>2026-07-23T20:40:03.085Z</time>
      </trkpt>
      <trkpt lat="52.213718" lon="6.125061">
        <ele>4.951627</ele>
        <time>2026-07-23T20:40:08.534Z</time>
      </trkpt>
      <trkpt lat="52.213597" lon="6.125270">
        <ele>4.894860</ele>
        <time>2026-07-23T20:40:12.212Z</time>
      </trkpt>
      <trkpt lat="52.213453" lon="6.125652">
        <ele>4.806314</ele>
        <time>2026-07-23T20:40:17.960Z</time>
      </trkpt>
      <trkpt lat="52.213253" lon="6.126443">
        <ele>4.637378</ele>
        <time>2026-07-23T20:40:29.276Z</time>
      </trkpt>
      <trkpt lat="52.213168" lon="6.126779">
        <ele>4.594693</ele>
        <time>2026-07-23T20:40:34.053Z</time>
      </trkpt>
      <trkpt lat="52.213120" lon="6.126816">
        <ele>4.589680</ele>
        <time>2026-07-23T20:40:35.145Z</time>
      </trkpt>
      <trkpt lat="52.213079" lon="6.126789">
        <ele>4.585505</ele>
        <time>2026-07-23T20:40:36.098Z</time>
      </trkpt>
      <trkpt lat="52.213028" lon="6.126981">
        <ele>4.573396</ele>
        <time>2026-07-23T20:40:38.768Z</time>
      </trkpt>
      <trkpt lat="52.213013" lon="6.127038">
        <ele>4.569806</ele>
        <time>2026-07-23T20:40:39.537Z</time>
      </trkpt>
      <trkpt lat="52.212935" lon="6.127033">
        <ele>4.562435</ele>
        <time>2026-07-23T20:40:41.079Z</time>
      </trkpt>
      <trkpt lat="52.212700" lon="6.127136">
        <ele>4.539456</ele>
        <time>2026-07-23T20:40:46.298Z</time>
      </trkpt>
      <trkpt lat="52.212609" lon="6.127136">
        <ele>4.530863</ele>
        <time>2026-07-23T20:40:48.349Z</time>
      </trkpt>
      <trkpt lat="52.212138" lon="6.126938">
        <ele>4.484932</ele>
        <time>2026-07-23T20:40:59.315Z</time>
      </trkpt>
      <trkpt lat="52.212036" lon="6.126853">
        <ele>4.474116</ele>
        <time>2026-07-23T20:41:01.944Z</time>
      </trkpt>
      <trkpt lat="52.211846" lon="6.126500">
        <ele>4.446929</ele>
        <time>2026-07-23T20:41:08.710Z</time>
      </trkpt>
      <trkpt lat="52.211065" lon="6.125378">
        <ele>4.427123</ele>
        <time>2026-07-23T20:41:31.234Z</time>
      </trkpt>
      <trkpt lat="52.210243" lon="6.124060">
        <ele>4.496910</ele>
        <time>2026-07-23T20:41:56.950Z</time>
      </trkpt>
      <trkpt lat="52.210138" lon="6.123941">
        <ele>4.531906</ele>
        <time>2026-07-23T20:41:59.755Z</time>
      </trkpt>
      <trkpt lat="52.208733" lon="6.123423">
        <ele>4.970392</ele>
        <time>2026-07-23T20:42:33.591Z</time>
      </trkpt>
      <trkpt lat="52.208609" lon="6.123328">
        <ele>5.113006</ele>
        <time>2026-07-23T20:42:37.068Z</time>
      </trkpt>
      <trkpt lat="52.208520" lon="6.123362">
        <ele>5.208168</ele>
        <time>2026-07-23T20:42:39.414Z</time>
      </trkpt>
      <trkpt lat="52.207629" lon="6.124206">
        <ele>6.280732</ele>
        <time>2026-07-23T20:43:06.212Z</time>
      </trkpt>
      <trkpt lat="52.207405" lon="6.124347">
        <ele>6.530685</ele>
        <time>2026-07-23T20:43:12.893Z</time>
      </trkpt>
      <trkpt lat="52.206913" lon="6.124525">
        <ele>6.826863</ele>
        <time>2026-07-23T20:43:28.101Z</time>
      </trkpt>
      <trkpt lat="52.206818" lon="6.124620">
        <ele>6.845539</ele>
        <time>2026-07-23T20:43:31.792Z</time>
      </trkpt>
      <trkpt lat="52.206893" lon="6.124805">
        <ele>6.868324</ele>
        <time>2026-07-23T20:43:35.168Z</time>
      </trkpt>
      <trkpt lat="52.206718" lon="6.124908">
        <ele>6.899507</ele>
        <time>2026-07-23T20:43:39.654Z</time>
      </trkpt>
      <trkpt lat="52.206080" lon="6.125106">
        <ele>7.008364</ele>
        <time>2026-07-23T20:43:51.912Z</time>
      </trkpt>
      <trkpt lat="52.206046" lon="6.124955">
        <ele>7.024888</ele>
        <time>2026-07-23T20:43:53.959Z</time>
      </trkpt>
      <trkpt lat="52.205931" lon="6.124430">
        <ele>7.082158</ele>
        <time>2026-07-23T20:44:01.552Z</time>
      </trkpt>
      <trkpt lat="52.205760" lon="6.123836">
        <ele>7.099116</ele>
        <time>2026-07-23T20:44:10.797Z</time>
      </trkpt>
      <trkpt lat="52.205345" lon="6.123966">
        <ele>7.115023</ele>
        <time>2026-07-23T20:44:20.383Z</time>
      </trkpt>
      <trkpt lat="52.205260" lon="6.123950">
        <ele>7.118244</ele>
        <time>2026-07-23T20:44:22.248Z</time>
      </trkpt>
      <trkpt lat="52.205209" lon="6.123912">
        <ele>7.120354</ele>
        <time>2026-07-23T20:44:23.454Z</time>
      </trkpt>
      <trkpt lat="52.205064" lon="6.123638">
        <ele>7.128706</ele>
        <time>2026-07-23T20:44:28.186Z</time>
      </trkpt>
      <trkpt lat="52.204973" lon="6.123420">
        <ele>7.134791</ele>
        <time>2026-07-23T20:44:31.593Z</time>
      </trkpt>
      <trkpt lat="52.204947" lon="6.123263">
        <ele>7.138542</ele>
        <time>2026-07-23T20:44:33.878Z</time>
      </trkpt>
      <trkpt lat="52.204805" lon="6.123308">
        <ele>7.143987</ele>
        <time>2026-07-23T20:44:37.520Z</time>
      </trkpt>
      <trkpt lat="52.204617" lon="6.123488">
        <ele>7.152193</ele>
        <time>2026-07-23T20:44:43.145Z</time>
      </trkpt>
      <trkpt lat="52.203946" lon="6.123934">
        <ele>6.827963</ele>
        <time>2026-07-23T20:44:58.952Z</time>
      </trkpt>
      <trkpt lat="52.203648" lon="6.124118">
        <ele>6.685283</ele>
        <time>2026-07-23T20:45:05.304Z</time>
      </trkpt>
      <trkpt lat="52.203482" lon="6.124173">
        <ele>6.609431</ele>
        <time>2026-07-23T20:45:08.633Z</time>
      </trkpt>
      <trkpt lat="52.203354" lon="6.124128">
        <ele>6.550797</ele>
        <time>2026-07-23T20:45:11.223Z</time>
      </trkpt>
      <trkpt lat="52.202290" lon="6.123444">
        <ele>6.145138</ele>
        <time>2026-07-23T20:45:33.897Z</time>
      </trkpt>
      <trkpt lat="52.201867" lon="6.123260">
        <ele>6.016836</ele>
        <time>2026-07-23T20:45:42.306Z</time>
      </trkpt>
      <trkpt lat="52.201800" lon="6.123246">
        <ele>5.997039</ele>
        <time>2026-07-23T20:45:43.622Z</time>
      </trkpt>
      <trkpt lat="52.201724" lon="6.123283">
        <ele>5.973795</ele>
        <time>2026-07-23T20:45:45.278Z</time>
      </trkpt>
      <trkpt lat="52.200462" lon="6.124166">
        <ele>5.955441</ele>
        <time>2026-07-23T20:46:20.590Z</time>
      </trkpt>
      <trkpt lat="52.200345" lon="6.123191">
        <ele>6.053063</ele>
        <time>2026-07-23T20:46:32.325Z</time>
      </trkpt>
      <trkpt lat="52.200292" lon="6.122993">
        <ele>6.074293</ele>
        <time>2026-07-23T20:46:35.131Z</time>
      </trkpt>
      <trkpt lat="52.200223" lon="6.122878">
        <ele>6.090107</ele>
        <time>2026-07-23T20:46:37.395Z</time>
      </trkpt>
      <trkpt lat="52.199768" lon="6.122339">
        <ele>6.039917</ele>
        <time>2026-07-23T20:46:51.265Z</time>
      </trkpt>
      <trkpt lat="52.199722" lon="6.122245">
        <ele>6.028783</ele>
        <time>2026-07-23T20:46:53.049Z</time>
      </trkpt>
      <trkpt lat="52.199495" lon="6.121517">
        <ele>5.953179</ele>
        <time>2026-07-23T20:47:04.386Z</time>
      </trkpt>
      <trkpt lat="52.199441" lon="6.121223">
        <ele>5.924770</ele>
        <time>2026-07-23T20:47:08.243Z</time>
      </trkpt>
      <trkpt lat="52.199338" lon="6.120099">
        <ele>5.835495</ele>
        <time>2026-07-23T20:47:22.021Z</time>
      </trkpt>
      <trkpt lat="52.199338" lon="6.119092">
        <ele>5.830703</ele>
        <time>2026-07-23T20:47:35.814Z</time>
      </trkpt>
      <trkpt lat="52.199319" lon="6.118772">
        <ele>5.829173</ele>
        <time>2026-07-23T20:47:40.412Z</time>
      </trkpt>
      <trkpt lat="52.199290" lon="6.118531">
        <ele>5.828004</ele>
        <time>2026-07-23T20:47:43.914Z</time>
      </trkpt>
      <trkpt lat="52.199129" lon="6.117213">
        <ele>5.887935</ele>
        <time>2026-07-23T20:48:02.923Z</time>
      </trkpt>
      <trkpt lat="52.198986" lon="6.114831">
        <ele>6.839900</ele>
        <time>2026-07-23T20:48:35.100Z</time>
      </trkpt>
      <trkpt lat="52.198936" lon="6.114085">
        <ele>7.216952</ele>
        <time>2026-07-23T20:48:49.648Z</time>
      </trkpt>
      <trkpt lat="52.198884" lon="6.113230">
        <ele>7.739142</ele>
        <time>2026-07-23T20:49:12.767Z</time>
      </trkpt>
      <trkpt lat="52.199556" lon="6.112937">
        <ele>8.428872</ele>
        <time>2026-07-23T20:49:31.859Z</time>
      </trkpt>
      <trkpt lat="52.200803" lon="6.112326">
        <ele>8.131617</ele>
        <time>2026-07-23T20:50:04.417Z</time>
      </trkpt>
      <trkpt lat="52.201014" lon="6.111989">
        <ele>7.933254</ele>
        <time>2026-07-23T20:50:10.489Z</time>
      </trkpt>
      <trkpt lat="52.201303" lon="6.111058">
        <ele>7.456300</ele>
        <time>2026-07-23T20:50:26.960Z</time>
      </trkpt>
      <trkpt lat="52.201375" lon="6.110940">
        <ele>7.334808</ele>
        <time>2026-07-23T20:50:29.525Z</time>
      </trkpt>
      <trkpt lat="52.201737" lon="6.110636">
        <ele>6.850113</ele>
        <time>2026-07-23T20:50:38.326Z</time>
      </trkpt>
      <trkpt lat="52.201845" lon="6.110509">
        <ele>6.691626</ele>
        <time>2026-07-23T20:50:40.602Z</time>
      </trkpt>
      <trkpt lat="52.202025" lon="6.110739">
        <ele>6.419445</ele>
        <time>2026-07-23T20:50:44.101Z</time>
      </trkpt>
      <trkpt lat="52.202108" lon="6.110908">
        <ele>6.261430</ele>
        <time>2026-07-23T20:50:46.238Z</time>
      </trkpt>
      <trkpt lat="52.202145" lon="6.111246">
        <ele>6.010911</ele>
        <time>2026-07-23T20:50:50.156Z</time>
      </trkpt>
      <trkpt lat="52.202168" lon="6.111622">
        <ele>5.735205</ele>
        <time>2026-07-23T20:50:54.204Z</time>
      </trkpt>
      <trkpt lat="52.202202" lon="6.111682">
        <ele>5.675582</ele>
        <time>2026-07-23T20:50:55.083Z</time>
      </trkpt>
      <trkpt lat="52.202237" lon="6.111676">
        <ele>5.633685</ele>
        <time>2026-07-23T20:50:55.725Z</time>
      </trkpt>
      <trkpt lat="52.202927" lon="6.111538">
        <ele>5.817244</ele>
        <time>2026-07-23T20:51:21.172Z</time>
      </trkpt>
      <trkpt lat="52.202964" lon="6.111533">
        <ele>5.845436</ele>
        <time>2026-07-23T20:51:22.271Z</time>
      </trkpt>
      <trkpt lat="52.203200" lon="6.111440">
        <ele>6.029795</ele>
        <time>2026-07-23T20:51:30.183Z</time>
      </trkpt>
      <trkpt lat="52.203690" lon="6.111104">
        <ele>6.433397</ele>
        <time>2026-07-23T20:51:44.949Z</time>
      </trkpt>
      <trkpt lat="52.203838" lon="6.111055">
        <ele>6.548071</ele>
        <time>2026-07-23T20:51:49.195Z</time>
      </trkpt>
      <trkpt lat="52.204128" lon="6.110614">
        <ele>6.757033</ele>
        <time>2026-07-23T20:52:00.031Z</time>
      </trkpt>
      <trkpt lat="52.204159" lon="6.110493">
        <ele>6.724158</ele>
        <time>2026-07-23T20:52:01.981Z</time>
      </trkpt>
      <trkpt lat="52.204380" lon="6.110304">
        <ele>6.622099</ele>
        <time>2026-07-23T20:52:07.787Z</time>
      </trkpt>
      <trkpt lat="52.204400" lon="6.110395">
        <ele>6.597865</ele>
        <time>2026-07-23T20:52:09.094Z</time>
      </trkpt>
      <trkpt lat="52.204525" lon="6.110318">
        <ele>6.543214</ele>
        <time>2026-07-23T20:52:11.824Z</time>
      </trkpt>
      <trkpt lat="52.204696" lon="6.110213">
        <ele>6.468482</ele>
        <time>2026-07-23T20:52:15.374Z</time>
      </trkpt>
      <trkpt lat="52.205760" lon="6.109450">
        <ele>6.035586</ele>
        <time>2026-07-23T20:52:37.517Z</time>
      </trkpt>
      <trkpt lat="52.206790" lon="6.108310">
        <ele>5.884236</ele>
        <time>2026-07-23T20:53:05.746Z</time>
      </trkpt>
      <trkpt lat="52.207023" lon="6.108254">
        <ele>5.855596</ele>
        <time>2026-07-23T20:53:11.080Z</time>
      </trkpt>
      <trkpt lat="52.207330" lon="6.108362">
        <ele>5.841551</ele>
        <time>2026-07-23T20:53:18.051Z</time>
      </trkpt>
      <trkpt lat="52.207810" lon="6.108690">
        <ele>5.865949</ele>
        <time>2026-07-23T20:53:29.543Z</time>
      </trkpt>
      <trkpt lat="52.209270" lon="6.110190">
        <ele>5.761905</ele>
        <time>2026-07-23T20:54:08.509Z</time>
      </trkpt>
      <trkpt lat="52.209370" lon="6.110260">
        <ele>5.732918</ele>
        <time>2026-07-23T20:54:10.837Z</time>
      </trkpt>
      <trkpt lat="52.209480" lon="6.110260">
        <ele>5.703614</ele>
        <time>2026-07-23T20:54:13.124Z</time>
      </trkpt>
      <trkpt lat="52.210360" lon="6.109970">
        <ele>5.464455</ele>
        <time>2026-07-23T20:54:31.487Z</time>
      </trkpt>
      <trkpt lat="52.211197" lon="6.109497">
        <ele>5.539414</ele>
        <time>2026-07-23T20:54:50.442Z</time>
      </trkpt>
      <trkpt lat="52.211510" lon="6.109320">
        <ele>5.580886</ele>
        <time>2026-07-23T20:54:57.553Z</time>
      </trkpt>
      <trkpt lat="52.211964" lon="6.109130">
        <ele>5.639564</ele>
        <time>2026-07-23T20:55:09.429Z</time>
      </trkpt>
      <trkpt lat="52.212002" lon="6.109131">
        <ele>5.644322</ele>
        <time>2026-07-23T20:55:10.374Z</time>
      </trkpt>
      <trkpt lat="52.212192" lon="6.109148">
        <ele>5.664436</ele>
        <time>2026-07-23T20:55:15.067Z</time>
      </trkpt>
      <trkpt lat="52.212354" lon="6.109186">
        <ele>5.659192</ele>
        <time>2026-07-23T20:55:19.072Z</time>
      </trkpt>
      <trkpt lat="52.212591" lon="6.109242">
        <ele>5.651519</ele>
        <time>2026-07-23T20:55:24.976Z</time>
      </trkpt>
      <trkpt lat="52.212701" lon="6.109298">
        <ele>5.647827</ele>
        <time>2026-07-23T20:55:28.044Z</time>
      </trkpt>
      <trkpt lat="52.212795" lon="6.109388">
        <ele>5.644335</ele>
        <time>2026-07-23T20:55:31.054Z</time>
      </trkpt>
      <trkpt lat="52.212827" lon="6.109460">
        <ele>5.642589</ele>
        <time>2026-07-23T20:55:32.383Z</time>
      </trkpt>
      <trkpt lat="52.212897" lon="6.109714">
        <ele>5.637121</ele>
        <time>2026-07-23T20:55:35.732Z</time>
      </trkpt>
      <trkpt lat="52.213037" lon="6.111258">
        <ele>5.619983</ele>
        <time>2026-07-23T20:55:54.641Z</time>
      </trkpt>
      <trkpt lat="52.213035" lon="6.111630">
        <ele>5.703762</ele>
        <time>2026-07-23T20:55:59.394Z</time>
      </trkpt>
      <trkpt lat="52.213101" lon="6.112755">
        <ele>5.958273</ele>
        <time>2026-07-23T20:56:18.156Z</time>
      </trkpt>
      <trkpt lat="52.213220" lon="6.113810">
        <ele>6.199854</ele>
        <time>2026-07-23T20:56:33.004Z</time>
      </trkpt>
      <trkpt lat="52.213244" lon="6.114306">
        <ele>6.302467</ele>
        <time>2026-07-23T20:56:40.456Z</time>
      </trkpt>
      <trkpt lat="52.213238" lon="6.116410">
        <ele>6.672977</ele>
        <time>2026-07-23T20:57:20.309Z</time>
      </trkpt>
      <trkpt lat="52.213354" lon="6.116452">
        <ele>6.707126</ele>
        <time>2026-07-23T20:57:23.940Z</time>
      </trkpt>
      <trkpt lat="52.213424" lon="6.116454">
        <ele>6.727246</ele>
        <time>2026-07-23T20:57:26.023Z</time>
      </trkpt>
      <trkpt lat="52.214109" lon="6.116476">
        <ele>6.797661</ele>
        <time>2026-07-23T20:57:45.944Z</time>
      </trkpt>
      <trkpt lat="52.215608" lon="6.116414">
        <ele>6.794316</ele>
        <time>2026-07-23T20:58:28.175Z</time>
      </trkpt>
      <trkpt lat="52.216220" lon="6.116400">
        <ele>6.672709</ele>
        <time>2026-07-23T20:58:47.731Z</time>
      </trkpt>
      <trkpt lat="52.216395" lon="6.116343">
        <ele>6.637254</ele>
        <time>2026-07-23T20:58:52.077Z</time>
      </trkpt>
      <trkpt lat="52.216470" lon="6.116236">
        <ele>6.617463</ele>
        <time>2026-07-23T20:58:53.790Z</time>
      </trkpt>
      <trkpt lat="52.216514" lon="6.116100">
        <ele>6.598741</ele>
        <time>2026-07-23T20:58:55.278Z</time>
      </trkpt>
      <trkpt lat="52.216744" lon="6.116165">
        <ele>6.552364</ele>
        <time>2026-07-23T20:58:59.004Z</time>
      </trkpt>
      <trkpt lat="52.216868" lon="6.116099">
        <ele>6.526450</ele>
        <time>2026-07-23T20:59:01.220Z</time>
      </trkpt>
      <trkpt lat="52.216912" lon="6.116208">
        <ele>6.510561</ele>
        <time>2026-07-23T20:59:02.808Z</time>
      </trkpt>
      <trkpt lat="52.216952" lon="6.116309">
        <ele>6.495921</ele>
        <time>2026-07-23T20:59:04.343Z</time>
      </trkpt>
      <trkpt lat="52.216982" lon="6.116371">
        <ele>6.486304</ele>
        <time>2026-07-23T20:59:05.316Z</time>
      </trkpt>
      <trkpt lat="52.217018" lon="6.116378">
        <ele>6.479101</ele>
        <time>2026-07-23T20:59:06.016Z</time>
      </trkpt>
      <trkpt lat="52.217218" lon="6.116098">
        <ele>6.460180</ele>
        <time>2026-07-23T20:59:11.333Z</time>
      </trkpt>
      <trkpt lat="52.218196" lon="6.115193">
        <ele>6.397137</ele>
        <time>2026-07-23T20:59:39.045Z</time>
      </trkpt>
      <trkpt lat="52.218875" lon="6.114553">
        <ele>6.558200</ele>
        <time>2026-07-23T20:59:55.036Z</time>
      </trkpt>
      <trkpt lat="52.219261" lon="6.114079">
        <ele>6.818932</ele>
        <time>2026-07-23T21:00:07.117Z</time>
      </trkpt>
      <trkpt lat="52.219649" lon="6.113534">
        <ele>7.095235</ele>
        <time>2026-07-23T21:00:22.117Z</time>
      </trkpt>
      <trkpt lat="52.219843" lon="6.113317">
        <ele>7.222180</ele>
        <time>2026-07-23T21:00:29.257Z</time>
      </trkpt>
      <trkpt lat="52.220177" lon="6.112852">
        <ele>7.281612</ele>
        <time>2026-07-23T21:00:38.018Z</time>
      </trkpt>
      <trkpt lat="52.220415" lon="6.112597">
        <ele>7.199714</ele>
        <time>2026-07-23T21:00:43.569Z</time>
      </trkpt>
      <trkpt lat="52.220589" lon="6.112459">
        <ele>7.144063</ele>
        <time>2026-07-23T21:00:47.307Z</time>
      </trkpt>
      <trkpt lat="52.220875" lon="6.112347">
        <ele>7.059454</ele>
        <time>2026-07-23T21:00:53.029Z</time>
      </trkpt>
      <trkpt lat="52.221137" lon="6.112307">
        <ele>6.983755</ele>
        <time>2026-07-23T21:00:58.404Z</time>
      </trkpt>
      <trkpt lat="52.221334" lon="6.112318">
        <ele>6.927050</ele>
        <time>2026-07-23T21:01:02.680Z</time>
      </trkpt>
      <trkpt lat="52.222118" lon="6.112576">
        <ele>6.808725</ele>
        <time>2026-07-23T21:01:22.087Z</time>
      </trkpt>
      <trkpt lat="52.222425" lon="6.112617">
        <ele>6.796915</ele>
        <time>2026-07-23T21:01:28.799Z</time>
      </trkpt>
      <trkpt lat="52.222638" lon="6.112622">
        <ele>6.788748</ele>
        <time>2026-07-23T21:01:33.075Z</time>
      </trkpt>
      <trkpt lat="52.222817" lon="6.112543">
        <ele>6.781640</ele>
        <time>2026-07-23T21:01:36.590Z</time>
      </trkpt>
      <trkpt lat="52.223005" lon="6.112396">
        <ele>6.773648</ele>
        <time>2026-07-23T21:01:40.578Z</time>
      </trkpt>
      <trkpt lat="52.224537" lon="6.111146">
        <ele>6.959451</ele>
        <time>2026-07-23T21:02:22.463Z</time>
      </trkpt>
      <trkpt lat="52.225008" lon="6.110887">
        <ele>7.038253</ele>
        <time>2026-07-23T21:02:33.084Z</time>
      </trkpt>
      <trkpt lat="52.225366" lon="6.110746">
        <ele>6.872228</ele>
        <time>2026-07-23T21:02:40.256Z</time>
      </trkpt>
      <trkpt lat="52.225916" lon="6.110491">
        <ele>6.589680</ele>
        <time>2026-07-23T21:02:50.972Z</time>
      </trkpt>
      <trkpt lat="52.226825" lon="6.110331">
        <ele>6.146572</ele>
        <time>2026-07-23T21:03:10.158Z</time>
      </trkpt>
      <trkpt lat="52.227013" lon="6.110304">
        <ele>6.106000</ele>
        <time>2026-07-23T21:03:14.477Z</time>
      </trkpt>
      <trkpt lat="52.227286" lon="6.110295">
        <ele>6.047298</ele>
        <time>2026-07-23T21:03:24.450Z</time>
      </trkpt>
      <trkpt lat="52.227370" lon="6.110235">
        <ele>6.027587</ele>
        <time>2026-07-23T21:03:27.669Z</time>
      </trkpt>
      <trkpt lat="52.227374" lon="6.110125">
        <ele>6.013076</ele>
        <time>2026-07-23T21:03:29.333Z</time>
      </trkpt>
      <trkpt lat="52.226972" lon="6.106592">
        <ele>5.439362</ele>
        <time>2026-07-23T21:04:13.379Z</time>
      </trkpt>
      <trkpt lat="52.226970" lon="6.106416">
        <ele>5.405905</ele>
        <time>2026-07-23T21:04:15.838Z</time>
      </trkpt>
      <trkpt lat="52.226969" lon="6.106376">
        <ele>5.398296</ele>
        <time>2026-07-23T21:04:16.427Z</time>
      </trkpt>
      <trkpt lat="52.226961" lon="6.106027">
        <ele>5.331916</ele>
        <time>2026-07-23T21:04:21.569Z</time>
      </trkpt>
      <trkpt lat="52.226878" lon="6.104040">
        <ele>5.069857</ele>
        <time>2026-07-23T21:04:49.276Z</time>
      </trkpt>
      <trkpt lat="52.226906" lon="6.103778">
        <ele>5.042388</ele>
        <time>2026-07-23T21:04:52.582Z</time>
      </trkpt>
      <trkpt lat="52.226933" lon="6.103583">
        <ele>5.021739</ele>
        <time>2026-07-23T21:04:55.071Z</time>
      </trkpt>
      <trkpt lat="52.226928" lon="6.103494">
        <ele>5.012508</ele>
        <time>2026-07-23T21:04:56.226Z</time>
      </trkpt>
      <trkpt lat="52.226879" lon="6.103500">
        <ele>5.004223</ele>
        <time>2026-07-23T21:04:57.300Z</time>
      </trkpt>
      <trkpt lat="52.226774" lon="6.103411">
        <ele>4.984274</ele>
        <time>2026-07-23T21:04:59.877Z</time>
      </trkpt>
      <trkpt lat="52.226707" lon="6.103410">
        <ele>4.972976</ele>
        <time>2026-07-23T21:05:01.265Z</time>
      </trkpt>
      <trkpt lat="52.226389" lon="6.103418">
        <ele>4.919349</ele>
        <time>2026-07-23T21:05:07.779Z</time>
      </trkpt>
      <trkpt lat="52.226276" lon="6.103173">
        <ele>4.905206</ele>
        <time>2026-07-23T21:05:11.639Z</time>
      </trkpt>
      <trkpt lat="52.226239" lon="6.103148">
        <ele>4.905206</ele>
        <time>2026-07-23T21:05:12.483Z</time>
      </trkpt>
      <trkpt lat="52.226218" lon="6.103149">
        <ele>4.905206</ele>
        <time>2026-07-23T21:05:12.941Z</time>
      </trkpt>
      <trkpt lat="52.226152" lon="6.103157">
        <ele>4.905206</ele>
        <time>2026-07-23T21:05:14.394Z</time>
      </trkpt>
      <trkpt lat="52.226134" lon="6.103160">
        <ele>4.905206</ele>
        <time>2026-07-23T21:05:14.794Z</time>
      </trkpt>
      <trkpt lat="52.226108" lon="6.103178">
        <ele>4.905206</ele>
        <time>2026-07-23T21:05:15.405Z</time>
      </trkpt>
      <trkpt lat="52.225951" lon="6.103446">
        <ele>4.905206</ele>
        <time>2026-07-23T21:05:20.397Z</time>
      </trkpt>
      <trkpt lat="52.225916" lon="6.103428">
        <ele>4.905206</ele>
        <time>2026-07-23T21:05:21.440Z</time>
      </trkpt>
      <trkpt lat="52.225671" lon="6.103301">
        <ele>4.905206</ele>
        <time>2026-07-23T21:05:28.860Z</time>
      </trkpt>
      <trkpt lat="52.225113" lon="6.103013">
        <ele>4.905206</ele>
        <time>2026-07-23T21:05:46.305Z</time>
      </trkpt>
      <trkpt lat="52.225047" lon="6.102979">
        <ele>4.905206</ele>
        <time>2026-07-23T21:05:48.329Z</time>
      </trkpt>
      <trkpt lat="52.225201" lon="6.102185">
        <ele>4.905206</ele>
        <time>2026-07-23T21:06:02.814Z</time>
      </trkpt>
      <trkpt lat="52.225299" lon="6.101679">
        <ele>4.905206</ele>
        <time>2026-07-23T21:06:11.983Z</time>
      </trkpt>
      <trkpt lat="52.225263" lon="6.101568">
        <ele>4.905206</ele>
        <time>2026-07-23T21:06:14.104Z</time>
      </trkpt>
      <trkpt lat="52.225190" lon="6.101529">
        <ele>4.905206</ele>
        <time>2026-07-23T21:06:16.214Z</time>
      </trkpt>
    </trkseg>
  </trk>
</gpx>